Porter Corners, New York
Current Conditions -  °F | °C
As of 3:53 PM on Saturday 22 Nov 2014 (Local Time) from KGFL Reporting Station
Light Rain Light Rain  
Wind Chill: 27°   Ceiling: 4100
Heat Index: 33°   Visibility: 10mi
Dew Point: 16°   Wind: 7mph
Humidity: 50%   Direction: 220°SW
Pressure: 30.1"   Gusts: NA
Location:  43.15°N, 73.89°W
Report Text: KGFL 222053Z AUTO 22006KT 10SM -RA BKN041 BKN060 OVC075 01/M09 A3010 RMK AO2 UPB30E49RAB49 SLP201 P0000 60000 T00061089 56028
Loading
Personal Weather Stations






























Interactive Weather Map New forecast layout! Learn more

10-Day Weather Forecast

Advertisements
Track Severe Weather on mobile